Citadel — PBOK — position and weather

sailwx.info

Track history (hours):
 
Tides and Currents Weather Stations Pressure Air Temp Water Temp Dewpoint Dewpoint Depression Visibility Wind Speed Wind Dir Waves Ship Positions

Citadel

Last reported at 2017-Nov-17 08:33 UTC. Time now 2017-Nov-22 18:29 UTC.
Position N 36°41' E 014°33'.

Length 111 m; draft 5.7 m.

Type: Cargo ship. MMSI: 245977000.

Date/timePositionNaut miles runAvg speedWind from/ knotsBaromVisibWave heightAir tempDewpointWater temp
2017-Nov-17 08:33N 36°41' E 014°33'112.1
2017-Nov-17 08:30N 36°42' E 014°32'612.6
2017-Nov-17 08:00N 36°44' E 014°25'612.5
2017-Nov-17 07:30N 36°47' E 014°18'612.2
2017-Nov-17 07:00N 36°50' E 014°12'612.6
2017-Nov-17 06:30N 36°53' E 014°05'612.4
2017-Nov-17 06:00N 36°56' E 013°58'612.3
2017-Nov-17 05:30N 36°58' E 013°51'611.6
2017-Nov-17 05:00N 37°01' E 013°45'  
2017-Nov-12 18:34N 36°14' W 007°39'110.9
2017-Nov-12 18:26N 36°14' W 007°41'510.9
2017-Nov-12 17:56N 36°16' W 007°47'511.0
2017-Nov-12 17:27N 36°17' W 007°54'610.9
2017-Nov-12 16:56N 36°18' W 008°01'134 9.7
2017-Nov-12 03:05N 37°58' W 009°53'111.5
2017-Nov-12 02:59N 37°59' W 009°53'611.7
2017-Nov-12 02:30N 38°05' W 009°54'611.8
2017-Nov-12 01:59N 38°11' W 009°56'611.7
2017-Nov-12 01:27N 38°17' W 009°58'511.8
2017-Nov-12 01:01N 38°22' W 009°59'611.7
2017-Nov-12 00:30N 38°27' W 010°01'611.3
2017-Nov-12 00:00N 38°33' W 010°02'611.4
2017-Nov-11 23:31N 38°39' W 010°04'610.9
2017-Nov-11 23:00N 38°44' W 010°05'511.0
2017-Nov-11 22:31N 38°49' W 010°05'611.0
2017-Nov-11 22:00N 38°55' W 010°05'611.1
2017-Nov-11 21:31N 39°00' W 010°05'611.1
2017-Nov-11 21:00N 39°06' W 010°05'610.7
2017-Nov-11 20:25N 39°12' W 010°05'292 9.5
2017-Nov-10 13:34N 43°48' W 007°56'111.6
2017-Nov-10 13:30N 43°48' W 007°55'811.3
2017-Nov-10 12:46N 43°50' W 007°44'311.0
2017-Nov-10 12:30N 43°50' W 007°40'510.9
2017-Nov-10 12:01N 43°50' W 007°32'510.7
2017-Nov-10 11:30N 43°51' W 007°25'5 9.8
2017-Nov-10 11:00N 43°49' W 007°18'4210.9
2017-Nov-10 07:07N 43°46' W 006°20'311.3
2017-Nov-10 06:51N 43°46' W 006°16'411.3
2017-Nov-10 06:28N 43°46' W 006°10'511.1
2017-Nov-10 06:00N 43°45' W 006°03'611.5
2017-Nov-10 05:29N 43°45' W 005°54'511.1
2017-Nov-10 05:01N 43°45' W 005°47'610.9
2017-Nov-10 04:30N 43°44' W 005°39'510.9
2017-Nov-10 04:01N 43°43' W 005°32'611.2
2017-Nov-10 03:30N 43°42' W 005°24'611.2
2017-Nov-10 03:00N 43°41' W 005°17'611.0
2017-Nov-10 02:30N 43°40' W 005°09'610.8
2017-Nov-10 01:54N 43°40' W 005°00'3210.8
2017-Nov-09 22:56N 43°34' W 004°17'410.3
2017-Nov-09 22:30N 43°34' W 004°11'510.4
2017-Nov-09 22:00N 43°33' W 004°04'510.6
2017-Nov-09 21:30N 43°32' W 003°56'510.8
2017-Nov-09 21:00N 43°31' W 003°49'4 8.3
2017-Nov-09 20:30N 43°28' W 003°45'3 5.9
2017-Nov-09 19:58N 43°27' W 003°49'0 0.0
2017-Nov-09 19:28N 43°27' W 003°49'0 0.0
2017-Nov-09 18:58N 43°27' W 003°49'0 0.0
2017-Nov-09 18:30N 43°27' W 003°49'0 0.0
2017-Nov-09 18:00N 43°27' W 003°49'0 0.0
2017-Nov-09 17:30N 43°27' W 003°49'0 0.0
2017-Nov-09 17:00N 43°27' W 003°49'0 0.0
2017-Nov-09 16:30N 43°27' W 003°49'0 0.0
2017-Nov-09 15:59N 43°27' W 003°49'0 0.0
2017-Nov-09 15:29N 43°27' W 003°49'0 0.0
2017-Nov-09 14:59N 43°27' W 003°49'0 0.0
2017-Nov-09 14:26N 43°27' W 003°49'0 0.0
2017-Nov-09 13:58N 43°27' W 003°49'0 0.0
2017-Nov-09 13:25N 43°27' W 003°49'0 0.0
2017-Nov-09 12:58N 43°27' W 003°49'0 0.0
2017-Nov-09 12:28N 43°27' W 003°49'0 0.0
2017-Nov-09 11:58N 43°27' W 003°49'0 0.0
2017-Nov-09 11:30N 43°27' W 003°49'0 0.0
2017-Nov-09 10:54N 43°27' W 003°49'0 0.0
2017-Nov-09 10:30N 43°27' W 003°49'0 0.0
2017-Nov-09 10:00N 43°27' W 003°49'0 0.0
2017-Nov-09 09:29N 43°27' W 003°49'0 0.0
2017-Nov-09 08:59N 43°27' W 003°49'0 0.0
2017-Nov-09 08:29N 43°27' W 003°49'0 0.0
2017-Nov-09 07:59N 43°27' W 003°49'0 0.0
2017-Nov-09 07:29N 43°27' W 003°49'0 0.0
2017-Nov-09 06:58N 43°27' W 003°49'0 0.0
2017-Nov-09 06:28N 43°27' W 003°49'0 0.0
2017-Nov-09 05:58N 43°27' W 003°49'0 0.0
2017-Nov-09 05:28N 43°27' W 003°49'0 0.0
2017-Nov-09 05:01N 43°27' W 003°49'0 0.0
2017-Nov-09 04:30N 43°27' W 003°49'0 0.0
2017-Nov-09 04:00N 43°27' W 003°49'0 0.0
2017-Nov-09 03:27N 43°27' W 003°49'0 0.0
2017-Nov-09 03:00N 43°27' W 003°49'0 0.0
2017-Nov-09 02:29N 43°27' W 003°49'0 0.0
2017-Nov-09 01:59N 43°27' W 003°49'0 0.0
2017-Nov-09 01:29N 43°27' W 003°49'0 0.0
2017-Nov-09 00:59N 43°27' W 003°49'0 0.0
2017-Nov-09 00:29N 43°27' W 003°49'0 0.0
2017-Nov-08 23:58N 43°27' W 003°49'0 0.0
2017-Nov-08 23:28N 43°27' W 003°49'0 0.0
2017-Nov-08 22:58N 43°27' W 003°49'0 0.0
2017-Nov-08 22:28N 43°27' W 003°49'0 0.0
2017-Nov-08 22:00N 43°27' W 003°49'0 0.0
2017-Nov-08 21:30N 43°27' W 003°49'0 0.0
2017-Nov-08 21:00N 43°27' W 003°49'0 0.0
2017-Nov-08 20:30N 43°27' W 003°49'0 0.0
2017-Nov-08 20:00N 43°27' W 003°49'0 0.0
2017-Nov-08 19:29N 43°27' W 003°49'0 0.0
2017-Nov-08 18:59N 43°27' W 003°49'0 0.0
2017-Nov-08 18:29N 43°27' W 003°49'0 0.0
2017-Nov-08 17:59N 43°27' W 003°49'0 0.0
2017-Nov-08 17:28N 43°27' W 003°49'0 0.0
2017-Nov-08 16:58N 43°27' W 003°49'0 0.0
2017-Nov-08 16:28N 43°27' W 003°49'0 0.0
2017-Nov-08 15:58N 43°27' W 003°49'0 0.0
2017-Nov-08 15:28N 43°27' W 003°49'0 0.0
2017-Nov-08 15:00N 43°27' W 003°49'0 0.0
2017-Nov-08 14:30N 43°27' W 003°49'0 0.0
2017-Nov-08 14:00N 43°27' W 003°49'0 0.0
2017-Nov-08 13:30N 43°27' W 003°49'0 0.0
2017-Nov-08 13:00N 43°27' W 003°49'0 0.0
2017-Nov-08 12:26N 43°27' W 003°49'0 0.0
2017-Nov-08 11:56N 43°27' W 003°49'0 0.0
2017-Nov-08 11:29N 43°27' W 003°49'0 0.0
2017-Nov-08 10:59N 43°27' W 003°49'0 0.0
2017-Nov-08 10:28N 43°27' W 003°49'0 0.0
2017-Nov-08 09:58N 43°27' W 003°49'0 0.0
2017-Nov-08 09:28N 43°27' W 003°49'0 0.0
2017-Nov-08 08:58N 43°27' W 003°49'0 0.0
2017-Nov-08 08:28N 43°27' W 003°49'0 0.0
2017-Nov-08 08:00N 43°27' W 003°49'0 0.0
2017-Nov-08 07:30N 43°27' W 003°49'0 0.0
2017-Nov-08 07:00N 43°27' W 003°49'0 0.0
2017-Nov-08 06:30N 43°27' W 003°49'0 0.0
2017-Nov-08 05:59N 43°27' W 003°49'0 0.0
2017-Nov-08 05:29N 43°27' W 003°49'0 0.0
2017-Nov-08 04:56N 43°27' W 003°49'0 0.0
2017-Nov-08 04:29N 43°27' W 003°49'0 0.0
2017-Nov-08 03:59N 43°27' W 003°49'0 0.0
2017-Nov-08 03:28N 43°27' W 003°49'0 0.0
2017-Nov-08 02:58N 43°27' W 003°49'0 0.0
2017-Nov-08 02:28N 43°27' W 003°49'0 0.0
2017-Nov-08 01:58N 43°27' W 003°49'0 0.0
2017-Nov-08 01:28N 43°27' W 003°49'0 0.0
2017-Nov-08 01:00N 43°27' W 003°49'0 0.0
2017-Nov-08 00:31N 43°27' W 003°49'0 0.0
2017-Nov-08 00:00N 43°27' W 003°49'0 0.0
2017-Nov-07 23:30N 43°27' W 003°49'0 0.0
2017-Nov-07 22:59N 43°27' W 003°49'0 0.0
2017-Nov-07 22:29N 43°27' W 003°49'0 0.0
2017-Nov-07 21:59N 43°27' W 003°49'0 0.0
2017-Nov-07 21:30N 43°27' W 003°49'0 0.0
2017-Nov-07 20:59N 43°27' W 003°49'0 0.0
2017-Nov-07 20:28N 43°27' W 003°49'0 0.0
2017-Nov-07 19:58N 43°27' W 003°49'0 0.0
2017-Nov-07 19:28N 43°27' W 003°49'0 0.0
2017-Nov-07 18:58N 43°27' W 003°49'0 0.0
2017-Nov-07 18:28N 43°27' W 003°49'0 0.0
2017-Nov-07 18:00N 43°27' W 003°49'0 0.0
2017-Nov-07 17:30N 43°27' W 003°49'0 0.0
2017-Nov-07 17:00N 43°27' W 003°49'0 0.0
2017-Nov-07 16:30N 43°27' W 003°49'0 0.0
2017-Nov-07 15:59N 43°27' W 003°49'0 0.0
2017-Nov-07 15:23N 43°27' W 003°49'0 0.0
2017-Nov-07 14:59N 43°27' W 003°49'0 0.0
2017-Nov-07 14:29N 43°27' W 003°49'0 0.0
2017-Nov-07 13:59N 43°27' W 003°49'0 0.0
2017-Nov-07 13:28N 43°27' W 003°49'0 0.0
2017-Nov-07 12:58N 43°27' W 003°49'0 0.0
2017-Nov-07 12:28N 43°27' W 003°49'0 0.0
2017-Nov-07 11:58N 43°27' W 003°49'0 0.0
2017-Nov-07 11:24N 43°27' W 003°49'0 0.0
2017-Nov-07 11:00N 43°27' W 003°49'0 0.0
2017-Nov-07 10:30N 43°27' W 003°49'0 0.0
2017-Nov-07 09:57N 43°27' W 003°49'0 0.0
2017-Nov-07 09:30N 43°27' W 003°49'0 0.0
2017-Nov-07 08:56N 43°27' W 003°49'  
Track history (hours):
 
Tides and Currents Weather Stations Pressure Air Temp Water Temp Dewpoint Dewpoint Depression Visibility Wind Speed Wind Dir Waves Ship Positions

Citadel

Last reported at 2017-Nov-17 08:33 UTC. Time now 2017-Nov-22 18:29 UTC.
Position N 36°41' E 014°33'.

Length 111 m; draft 5.7 m.

Type: Cargo ship. MMSI: 245977000.

Date/timePositionNaut miles runAvg speedWind from/ knotsBaromVisibWave heightAir tempDewpointWater temp
2017-Nov-17 08:33N 36°41' E 014°33'112.1
2017-Nov-17 08:30N 36°42' E 014°32'612.6
2017-Nov-17 08:00N 36°44' E 014°25'612.5
2017-Nov-17 07:30N 36°47' E 014°18'612.2
2017-Nov-17 07:00N 36°50' E 014°12'612.6
2017-Nov-17 06:30N 36°53' E 014°05'612.4
2017-Nov-17 06:00N 36°56' E 013°58'612.3
2017-Nov-17 05:30N 36°58' E 013°51'611.6
2017-Nov-17 05:00N 37°01' E 013°45'  
2017-Nov-12 18:34N 36°14' W 007°39'110.9
2017-Nov-12 18:26N 36°14' W 007°41'510.9
2017-Nov-12 17:56N 36°16' W 007°47'511.0
2017-Nov-12 17:27N 36°17' W 007°54'610.9
2017-Nov-12 16:56N 36°18' W 008°01'134 9.7
2017-Nov-12 03:05N 37°58' W 009°53'111.5
2017-Nov-12 02:59N 37°59' W 009°53'611.7
2017-Nov-12 02:30N 38°05' W 009°54'611.8
2017-Nov-12 01:59N 38°11' W 009°56'611.7
2017-Nov-12 01:27N 38°17' W 009°58'511.8
2017-Nov-12 01:01N 38°22' W 009°59'611.7
2017-Nov-12 00:30N 38°27' W 010°01'611.3
2017-Nov-12 00:00N 38°33' W 010°02'611.4
2017-Nov-11 23:31N 38°39' W 010°04'610.9
2017-Nov-11 23:00N 38°44' W 010°05'511.0
2017-Nov-11 22:31N 38°49' W 010°05'611.0
2017-Nov-11 22:00N 38°55' W 010°05'611.1
2017-Nov-11 21:31N 39°00' W 010°05'611.1
2017-Nov-11 21:00N 39°06' W 010°05'610.7
2017-Nov-11 20:25N 39°12' W 010°05'292 9.5
2017-Nov-10 13:34N 43°48' W 007°56'111.6
2017-Nov-10 13:30N 43°48' W 007°55'811.3
2017-Nov-10 12:46N 43°50' W 007°44'311.0
2017-Nov-10 12:30N 43°50' W 007°40'510.9
2017-Nov-10 12:01N 43°50' W 007°32'510.7
2017-Nov-10 11:30N 43°51' W 007°25'5 9.8
2017-Nov-10 11:00N 43°49' W 007°18'4210.9
2017-Nov-10 07:07N 43°46' W 006°20'311.3
2017-Nov-10 06:51N 43°46' W 006°16'411.3
2017-Nov-10 06:28N 43°46' W 006°10'511.1
2017-Nov-10 06:00N 43°45' W 006°03'611.5
2017-Nov-10 05:29N 43°45' W 005°54'511.1
2017-Nov-10 05:01N 43°45' W 005°47'610.9
2017-Nov-10 04:30N 43°44' W 005°39'510.9
2017-Nov-10 04:01N 43°43' W 005°32'611.2
2017-Nov-10 03:30N 43°42' W 005°24'611.2
2017-Nov-10 03:00N 43°41' W 005°17'611.0
2017-Nov-10 02:30N 43°40' W 005°09'610.8
2017-Nov-10 01:54N 43°40' W 005°00'3210.8
2017-Nov-09 22:56N 43°34' W 004°17'410.3
2017-Nov-09 22:30N 43°34' W 004°11'510.4
2017-Nov-09 22:00N 43°33' W 004°04'510.6
2017-Nov-09 21:30N 43°32' W 003°56'510.8
2017-Nov-09 21:00N 43°31' W 003°49'4 8.3
2017-Nov-09 20:30N 43°28' W 003°45'3 5.9
2017-Nov-09 19:58N 43°27' W 003°49'0 0.0
2017-Nov-09 19:28N 43°27' W 003°49'0 0.0
2017-Nov-09 18:58N 43°27' W 003°49'0 0.0
2017-Nov-09 18:30N 43°27' W 003°49'0 0.0
2017-Nov-09 18:00N 43°27' W 003°49'0 0.0
2017-Nov-09 17:30N 43°27' W 003°49'0 0.0
2017-Nov-09 17:00N 43°27' W 003°49'0 0.0
2017-Nov-09 16:30N 43°27' W 003°49'0 0.0
2017-Nov-09 15:59N 43°27' W 003°49'0 0.0
2017-Nov-09 15:29N 43°27' W 003°49'0 0.0
2017-Nov-09 14:59N 43°27' W 003°49'0 0.0
2017-Nov-09 14:26N 43°27' W 003°49'0 0.0
2017-Nov-09 13:58N 43°27' W 003°49'0 0.0
2017-Nov-09 13:25N 43°27' W 003°49'0 0.0
2017-Nov-09 12:58N 43°27' W 003°49'0 0.0
2017-Nov-09 12:28N 43°27' W 003°49'0 0.0
2017-Nov-09 11:58N 43°27' W 003°49'0 0.0
2017-Nov-09 11:30N 43°27' W 003°49'0 0.0
2017-Nov-09 10:54N 43°27' W 003°49'0 0.0
2017-Nov-09 10:30N 43°27' W 003°49'0 0.0
2017-Nov-09 10:00N 43°27' W 003°49'0 0.0
2017-Nov-09 09:29N 43°27' W 003°49'0 0.0
2017-Nov-09 08:59N 43°27' W 003°49'0 0.0
2017-Nov-09 08:29N 43°27' W 003°49'0 0.0
2017-Nov-09 07:59N 43°27' W 003°49'0 0.0
2017-Nov-09 07:29N 43°27' W 003°49'0 0.0
2017-Nov-09 06:58N 43°27' W 003°49'0 0.0
2017-Nov-09 06:28N 43°27' W 003°49'0 0.0
2017-Nov-09 05:58N 43°27' W 003°49'0 0.0
2017-Nov-09 05:28N 43°27' W 003°49'0 0.0
2017-Nov-09 05:01N 43°27' W 003°49'0 0.0
2017-Nov-09 04:30N 43°27' W 003°49'0 0.0
2017-Nov-09 04:00N 43°27' W 003°49'0 0.0
2017-Nov-09 03:27N 43°27' W 003°49'0 0.0
2017-Nov-09 03:00N 43°27' W 003°49'0 0.0
2017-Nov-09 02:29N 43°27' W 003°49'0 0.0
2017-Nov-09 01:59N 43°27' W 003°49'0 0.0
2017-Nov-09 01:29N 43°27' W 003°49'0 0.0
2017-Nov-09 00:59N 43°27' W 003°49'0 0.0
2017-Nov-09 00:29N 43°27' W 003°49'0 0.0
2017-Nov-08 23:58N 43°27' W 003°49'0 0.0
2017-Nov-08 23:28N 43°27' W 003°49'0 0.0
2017-Nov-08 22:58N 43°27' W 003°49'0 0.0
2017-Nov-08 22:28N 43°27' W 003°49'0 0.0
2017-Nov-08 22:00N 43°27' W 003°49'0 0.0
2017-Nov-08 21:30N 43°27' W 003°49'0 0.0
2017-Nov-08 21:00N 43°27' W 003°49'0 0.0
2017-Nov-08 20:30N 43°27' W 003°49'0 0.0
2017-Nov-08 20:00N 43°27' W 003°49'0 0.0
2017-Nov-08 19:29N 43°27' W 003°49'0 0.0
2017-Nov-08 18:59N 43°27' W 003°49'0 0.0
2017-Nov-08 18:29N 43°27' W 003°49'0 0.0
2017-Nov-08 17:59N 43°27' W 003°49'0 0.0
2017-Nov-08 17:28N 43°27' W 003°49'0 0.0
2017-Nov-08 16:58N 43°27' W 003°49'0 0.0
2017-Nov-08 16:28N 43°27' W 003°49'0 0.0
2017-Nov-08 15:58N 43°27' W 003°49'0 0.0
2017-Nov-08 15:28N 43°27' W 003°49'0 0.0
2017-Nov-08 15:00N 43°27' W 003°49'0 0.0
2017-Nov-08 14:30N 43°27' W 003°49'0 0.0
2017-Nov-08 14:00N 43°27' W 003°49'0 0.0
2017-Nov-08 13:30N 43°27' W 003°49'0 0.0
2017-Nov-08 13:00N 43°27' W 003°49'0 0.0
2017-Nov-08 12:26N 43°27' W 003°49'0 0.0
2017-Nov-08 11:56N 43°27' W 003°49'0 0.0
2017-Nov-08 11:29N 43°27' W 003°49'0 0.0
2017-Nov-08 10:59N 43°27' W 003°49'0 0.0
2017-Nov-08 10:28N 43°27' W 003°49'0 0.0
2017-Nov-08 09:58N 43°27' W 003°49'0 0.0
2017-Nov-08 09:28N 43°27' W 003°49'0 0.0
2017-Nov-08 08:58N 43°27' W 003°49'0 0.0
2017-Nov-08 08:28N 43°27' W 003°49'0 0.0
2017-Nov-08 08:00N 43°27' W 003°49'0 0.0
2017-Nov-08 07:30N 43°27' W 003°49'0 0.0
2017-Nov-08 07:00N 43°27' W 003°49'0 0.0
2017-Nov-08 06:30N 43°27' W 003°49'0 0.0
2017-Nov-08 05:59N 43°27' W 003°49'0 0.0
2017-Nov-08 05:29N 43°27' W 003°49'0 0.0
2017-Nov-08 04:56N 43°27' W 003°49'0 0.0
2017-Nov-08 04:29N 43°27' W 003°49'0 0.0
2017-Nov-08 03:59N 43°27' W 003°49'0 0.0
2017-Nov-08 03:28N 43°27' W 003°49'0 0.0
2017-Nov-08 02:58N 43°27' W 003°49'0 0.0
2017-Nov-08 02:28N 43°27' W 003°49'0 0.0
2017-Nov-08 01:58N 43°27' W 003°49'0 0.0
2017-Nov-08 01:28N 43°27' W 003°49'0 0.0
2017-Nov-08 01:00N 43°27' W 003°49'0 0.0
2017-Nov-08 00:31N 43°27' W 003°49'0 0.0
2017-Nov-08 00:00N 43°27' W 003°49'0 0.0
2017-Nov-07 23:30N 43°27' W 003°49'0 0.0
2017-Nov-07 22:59N 43°27' W 003°49'0 0.0
2017-Nov-07 22:29N 43°27' W 003°49'0 0.0
2017-Nov-07 21:59N 43°27' W 003°49'0 0.0
2017-Nov-07 21:30N 43°27' W 003°49'0 0.0
2017-Nov-07 20:59N 43°27' W 003°49'0 0.0
2017-Nov-07 20:28N 43°27' W 003°49'0 0.0
2017-Nov-07 19:58N 43°27' W 003°49'0 0.0
2017-Nov-07 19:28N 43°27' W 003°49'0 0.0
2017-Nov-07 18:58N 43°27' W 003°49'0 0.0
2017-Nov-07 18:28N 43°27' W 003°49'0 0.0
2017-Nov-07 18:00N 43°27' W 003°49'0 0.0
2017-Nov-07 17:30N 43°27' W 003°49'0 0.0
2017-Nov-07 17:00N 43°27' W 003°49'0 0.0
2017-Nov-07 16:30N 43°27' W 003°49'0 0.0
2017-Nov-07 15:59N 43°27' W 003°49'0 0.0
2017-Nov-07 15:23N 43°27' W 003°49'0 0.0
2017-Nov-07 14:59N 43°27' W 003°49'0 0.0
2017-Nov-07 14:29N 43°27' W 003°49'0 0.0
2017-Nov-07 13:59N 43°27' W 003°49'0 0.0
2017-Nov-07 13:28N 43°27' W 003°49'0 0.0
2017-Nov-07 12:58N 43°27' W 003°49'0 0.0
2017-Nov-07 12:28N 43°27' W 003°49'0 0.0
2017-Nov-07 11:58N 43°27' W 003°49'0 0.0
2017-Nov-07 11:24N 43°27' W 003°49'0 0.0
2017-Nov-07 11:00N 43°27' W 003°49'0 0.0
2017-Nov-07 10:30N 43°27' W 003°49'0 0.0
2017-Nov-07 09:57N 43°27' W 003°49'0 0.0
2017-Nov-07 09:30N 43°27' W 003°49'0 0.0
2017-Nov-07 08:56N 43°27' W 003°49'  

Dump ship's entire track history